sensor_id;sensor_type;location;lat;lon;timestamp;pressure;altitude;pressure_sealevel;temperature;humidity
37486;BME280;23341;50.296;18.960;2023-03-31T00:03:14;40558.47;;;-144.43;100.00
37486;BME280;23341;50.296;18.960;2023-03-31T00:08:24;40576.41;;;-144.43;100.00
37486;BME280;23341;50.296;18.960;2023-03-31T00:13:32;40616.31;;;-144.43;100.00
37486;BME280;23341;50.296;18.960;2023-03-31T00:18:38;40630.25;;;-144.43;100.00
37486;BME280;23341;50.296;18.960;2023-03-31T00:23:50;40596.38;;;-144.43;100.00
37486;BME280;23341;50.296;18.960;2023-03-31T00:28:55;40596.38;;;-144.43;100.00
37486;BME280;23341;50.296;18.960;2023-03-31T00:34:01;40622.28;;;-144.43;100.00
37486;BME280;23341;50.296;18.960;2023-03-31T00:39:05;40596.38;;;-144.43;100.00
37486;BME280;23341;50.296;18.960;2023-03-31T00:44:12;40642.22;;;-144.43;100.00
37486;BME280;23341;50.296;18.960;2023-03-31T00:49:22;40620.28;;;-144.43;100.00
37486;BME280;23341;50.296;18.960;2023-03-31T00:54:30;40678.13;;;-144.43;100.00
37486;BME280;23341;50.296;18.960;2023-03-31T00:59:38;40634.25;;;-144.43;100.00
37486;BME280;23341;50.296;18.960;2023-03-31T01:04:48;40624.28;;;-144.43;100.00
37486;BME280;23341;50.296;18.960;2023-03-31T01:09:59;40658.19;;;-144.43;100.00
37486;BME280;23341;50.296;18.960;2023-03-31T01:15:06;40674.13;;;-144.43;100.00
37486;BME280;23341;50.296;18.960;2023-03-31T01:20:18;40664.16;;;-144.43;100.00
37486;BME280;23341;50.296;18.960;2023-03-31T01:31:30;40726.00;;;-144.43;100.00
37486;BME280;23341;50.296;18.960;2023-03-31T01:42:19;40702.06;;;-144.43;100.00
37486;BME280;23341;50.296;18.960;2023-03-31T01:47:30;40706.03;;;-144.43;100.00
37486;BME280;23341;50.296;18.960;2023-03-31T01:52:46;40686.09;;;-144.43;100.00
37486;BME280;23341;50.296;18.960;2023-03-31T01:57:57;40706.03;;;-144.43;100.00
37486;BME280;23341;50.296;18.960;2023-03-31T02:03:05;40706.03;;;-144.43;100.00
37486;BME280;23341;50.296;18.960;2023-03-31T02:08:14;40682.13;;;-144.43;100.00
37486;BME280;23341;50.296;18.960;2023-03-31T02:13:22;40727.97;;;-144.43;100.00
37486;BME280;23341;50.296;18.960;2023-03-31T02:18:30;40692.09;;;-144.43;100.00
37486;BME280;23341;50.296;18.960;2023-03-31T02:23:40;40690.09;;;-144.43;100.00
37486;BME280;23341;50.296;18.960;2023-03-31T02:28:47;40714.03;;;-144.43;100.00
37486;BME280;23341;50.296;18.960;2023-03-31T02:33:52;40733.97;;;-144.43;100.00
37486;BME280;23341;50.296;18.960;2023-03-31T02:38:59;40735.97;;;-144.43;100.00
37486;BME280;23341;50.296;18.960;2023-03-31T02:44:08;40801.78;;;-144.43;100.00
37486;BME280;23341;50.296;18.960;2023-03-31T02:49:13;40753.91;;;-144.43;100.00
37486;BME280;23341;50.296;18.960;2023-03-31T03:00:07;40733.97;;;-144.43;100.00
37486;BME280;23341;50.296;18.960;2023-03-31T03:05:24;40771.84;;;-144.43;100.00
37486;BME280;23341;50.296;18.960;2023-03-31T03:11:01;40819.72;;;-144.43;100.00
37486;BME280;23341;50.296;18.960;2023-03-31T03:16:14;40801.78;;;-144.43;100.00
37486;BME280;23341;50.296;18.960;2023-03-31T03:21:24;40793.78;;;-144.43;100.00
37486;BME280;23341;50.296;18.960;2023-03-31T03:26:28;40773.84;;;-144.43;100.00
37486;BME280;23341;50.296;18.960;2023-03-31T03:31:38;40765.88;;;-144.43;100.00
37486;BME280;23341;50.296;18.960;2023-03-31T03:36:43;40771.84;;;-144.43;100.00
37486;BME280;23341;50.296;18.960;2023-03-31T03:41:47;40737.94;;;-144.43;100.00
37486;BME280;23341;50.296;18.960;2023-03-31T03:46:53;40785.81;;;-144.43;100.00
37486;BME280;23341;50.296;18.960;2023-03-31T03:51:58;40773.84;;;-144.43;100.00
37486;BME280;23341;50.296;18.960;2023-03-31T03:57:03;40801.78;;;-144.43;100.00
37486;BME280;23341;50.296;18.960;2023-03-31T04:02:09;40817.72;;;-144.43;100.00
37486;BME280;23341;50.296;18.960;2023-03-31T04:07:13;40801.78;;;-144.43;100.00
37486;BME280;23341;50.296;18.960;2023-03-31T04:12:17;40839.66;;;-144.43;100.00
37486;BME280;23341;50.296;18.960;2023-03-31T04:17:23;40825.69;;;-144.43;100.00
37486;BME280;23341;50.296;18.960;2023-03-31T04:22:34;40869.56;;;-144.43;100.00
37486;BME280;23341;50.296;18.960;2023-03-31T04:27:43;40903.47;;;-144.43;100.00
37486;BME280;23341;50.296;18.960;2023-03-31T04:32:51;40981.25;;;-144.43;100.00
37486;BME280;23341;50.296;18.960;2023-03-31T04:37:56;41037.09;;;-144.43;100.00
37486;BME280;23341;50.296;18.960;2023-03-31T04:43:04;41071.00;;;-144.43;100.00
37486;BME280;23341;50.296;18.960;2023-03-31T04:48:10;41132.84;;;-144.43;100.00
37486;BME280;23341;50.296;18.960;2023-03-31T04:53:15;41164.75;;;-144.43;100.00
37486;BME280;23341;50.296;18.960;2023-03-31T04:58:20;41236.56;;;-144.43;100.00
37486;BME280;23341;50.296;18.960;2023-03-31T05:03:25;41320.31;;;-144.43;100.00
37486;BME280;23341;50.296;18.960;2023-03-31T05:08:30;41352.25;;;-144.43;100.00
37486;BME280;23341;50.296;18.960;2023-03-31T05:13:35;41404.09;;;-144.43;100.00
37486;BME280;23341;50.296;18.960;2023-03-31T05:18:42;41408.09;;;-144.43;100.00
37486;BME280;23341;50.296;18.960;2023-03-31T05:23:47;41493.84;;;-144.43;100.00
37486;BME280;23341;50.296;18.960;2023-03-31T05:28:52;41567.66;;;-144.43;100.00
37486;BME280;23341;50.296;18.960;2023-03-31T05:33:57;41697.31;;;-144.43;100.00
37486;BME280;23341;50.296;18.960;2023-03-31T05:39:02;41775.09;;;-144.43;100.00
37486;BME280;23341;50.296;18.960;2023-03-31T05:44:07;41791.06;;;-144.43;100.00
37486;BME280;23341;50.296;18.960;2023-03-31T05:49:13;41844.94;;;-144.43;100.00
37486;BME280;23341;50.296;18.960;2023-03-31T05:54:19;41884.81;;;-144.43;100.00
37486;BME280;23341;50.296;18.960;2023-03-31T05:59:24;41996.53;;;-144.43;100.00
37486;BME280;23341;50.296;18.960;2023-03-31T06:04:30;42100.28;;;-144.43;100.00
37486;BME280;23341;50.296;18.960;2023-03-31T06:09:35;42208.00;;;-144.43;99.00
37486;BME280;23341;50.296;18.960;2023-03-31T06:14:40;42319.72;;;-144.43;100.00
37486;BME280;23341;50.296;18.960;2023-03-31T06:19:47;42385.56;;;-144.43;95.61
37486;BME280;23341;50.296;18.960;2023-03-31T06:24:51;42481.34;;;-144.43;96.66
37486;BME280;23341;50.296;18.960;2023-03-31T06:29:56;42581.09;;;-144.43;92.64
37486;BME280;23341;50.296;18.960;2023-03-31T06:35:01;42710.78;;;-144.43;89.21
37486;BME280;23341;50.296;18.960;2023-03-31T06:40:07;42900.34;;;-144.43;82.70
37486;BME280;23341;50.296;18.960;2023-03-31T06:45:12;43151.75;;;-144.43;77.75
37486;BME280;23341;50.296;18.960;2023-03-31T06:50:17;43271.50;;;-144.43;77.12
37486;BME280;23341;50.296;18.960;2023-03-31T06:55:22;43371.28;;;-144.43;63.39
37486;BME280;23341;50.296;18.960;2023-03-31T07:00:26;43638.69;;;-144.43;68.26
37486;BME280;23341;50.296;18.960;2023-03-31T07:05:32;43666.63;;;-144.43;65.81
37486;BME280;23341;50.296;18.960;2023-03-31T07:10:36;43660.63;;;-144.43;64.50
37486;BME280;23341;50.296;18.960;2023-03-31T07:15:41;43646.66;;;-144.43;59.61
37486;BME280;23341;50.296;18.960;2023-03-31T07:20:48;43760.44;;;-144.43;60.29
37486;BME280;23341;50.296;18.960;2023-03-31T07:25:53;43684.59;;;-144.43;58.79
37486;BME280;23341;50.296;18.960;2023-03-31T07:30:57;43788.38;;;-144.43;57.66
37486;BME280;23341;50.296;18.960;2023-03-31T07:36:04;43878.19;;;-144.43;59.54
37486;BME280;23341;50.296;18.960;2023-03-31T07:41:17;43896.16;;;-144.43;57.60
37486;BME280;23341;50.296;18.960;2023-03-31T07:46:24;43812.31;;;-144.43;54.25
37486;BME280;23341;50.296;18.960;2023-03-31T07:51:30;43866.22;;;-144.43;54.06
37486;BME280;23341;50.296;18.960;2023-03-31T07:56:36;43748.47;;;-144.43;49.56
37486;BME280;23341;50.296;18.960;2023-03-31T08:01:40;44191.53;;;-144.43;58.24
37486;BME280;23341;50.296;18.960;2023-03-31T08:06:46;44309.31;;;-144.43;66.61
37486;BME280;23341;50.296;18.960;2023-03-31T08:11:53;44357.22;;;-144.43;68.90
37486;BME280;23341;50.296;18.960;2023-03-31T08:16:57;44331.28;;;-144.43;70.68
37486;BME280;23341;50.296;18.960;2023-03-31T08:22:03;44323.28;;;-144.43;72.46
37486;BME280;23341;50.296;18.960;2023-03-31T08:27:07;44289.34;;;-144.43;72.02
37486;BME280;23341;50.296;18.960;2023-03-31T08:32:14;44289.34;;;-144.43;70.02
37486;BME280;23341;50.296;18.960;2023-03-31T08:37:20;44225.47;;;-144.43;67.79
37486;BME280;23341;50.296;18.960;2023-03-31T08:42:31;44179.56;;;-144.43;65.88
37486;BME280;23341;50.296;18.960;2023-03-31T08:47:39;44247.44;;;-144.43;64.60
37486;BME280;23341;50.296;18.960;2023-03-31T08:52:48;44265.41;;;-144.43;65.04
37486;BME280;23341;50.296;18.960;2023-03-31T08:57:57;44241.44;;;-144.43;65.98
37486;BME280;23341;50.296;18.960;2023-03-31T09:03:08;44223.47;;;-144.43;64.72
37486;BME280;23341;50.296;18.960;2023-03-31T09:08:30;44179.56;;;-144.43;62.27
37486;BME280;23341;50.296;18.960;2023-03-31T09:13:46;44185.56;;;-144.43;62.93
37486;BME280;23341;50.296;18.960;2023-03-31T09:18:57;44163.59;;;-144.43;62.45
37486;BME280;23341;50.296;18.960;2023-03-31T09:24:07;44245.44;;;-144.43;63.64
37486;BME280;23341;50.296;18.960;2023-03-31T09:29:19;44217.50;;;-144.43;61.14
37486;BME280;23341;50.296;18.960;2023-03-31T09:34:29;44195.53;;;-144.43;60.31
37486;BME280;23341;50.296;18.960;2023-03-31T09:39:36;44259.41;;;-144.43;61.42
37486;BME280;23341;50.296;18.960;2023-03-31T09:44:43;44177.56;;;-144.43;63.68
37486;BME280;23341;50.296;18.960;2023-03-31T09:49:49;44171.59;;;-144.43;62.99
37486;BME280;23341;50.296;18.960;2023-03-31T09:54:59;44287.34;;;-144.43;63.44
37486;BME280;23341;50.296;18.960;2023-03-31T10:00:13;44267.41;;;-144.43;63.78
37486;BME280;23341;50.296;18.960;2023-03-31T10:05:25;44187.56;;;-144.43;62.17
37486;BME280;23341;50.296;18.960;2023-03-31T10:10:32;44257.41;;;-144.43;61.97
37486;BME280;23341;50.296;18.960;2023-03-31T10:15:37;44315.31;;;-144.43;63.75
37486;BME280;23341;50.296;18.960;2023-03-31T10:20:48;44263.41;;;-144.43;63.27
37486;BME280;23341;50.296;18.960;2023-03-31T10:25:55;44303.31;;;-144.43;66.01
37486;BME280;23341;50.296;18.960;2023-03-31T10:31:00;44333.25;;;-144.43;68.42
37486;BME280;23341;50.296;18.960;2023-03-31T10:36:07;44309.31;;;-144.43;68.56
37486;BME280;23341;50.296;18.960;2023-03-31T10:41:20;44349.22;;;-144.43;69.76
37486;BME280;23341;50.296;18.960;2023-03-31T10:46:39;44275.38;;;-144.43;67.76
37486;BME280;23341;50.296;18.960;2023-03-31T10:51:48;44289.34;;;-144.43;66.57
37486;BME280;23341;50.296;18.960;2023-03-31T10:56:55;44353.22;;;-144.43;68.68
37486;BME280;23341;50.296;18.960;2023-03-31T11:07:48;44273.38;;;-144.43;65.58
37486;BME280;23341;50.296;18.960;2023-03-31T11:12:59;44283.38;;;-144.43;65.74
37486;BME280;23341;50.296;18.960;2023-03-31T11:18:31;44267.41;;;-144.43;66.82
37486;BME280;23341;50.296;18.960;2023-03-31T11:23:40;44317.28;;;-144.43;67.86
37486;BME280;23341;50.296;18.960;2023-03-31T11:29:12;44317.28;;;-144.43;67.65
37486;BME280;23341;50.296;18.960;2023-03-31T11:34:48;44305.31;;;-144.43;67.48
37486;BME280;23341;50.296;18.960;2023-03-31T11:40:04;44309.31;;;-144.43;67.95
37486;BME280;23341;50.296;18.960;2023-03-31T11:45:15;44281.38;;;-144.43;65.59
37486;BME280;23341;50.296;18.960;2023-03-31T11:50:23;44335.25;;;-144.43;66.78
37486;BME280;23341;50.296;18.960;2023-03-31T11:55:30;44305.31;;;-144.43;66.06
37486;BME280;23341;50.296;18.960;2023-03-31T12:00:39;44253.44;;;-144.43;64.33
37486;BME280;23341;50.296;18.960;2023-03-31T12:05:48;44199.53;;;-144.43;60.65
37486;BME280;23341;50.296;18.960;2023-03-31T12:10:59;44257.41;;;-144.43;62.50
37486;BME280;23341;50.296;18.960;2023-03-31T12:16:10;44245.44;;;-144.43;62.25
37486;BME280;23341;50.296;18.960;2023-03-31T12:21:16;44281.38;;;-144.43;62.47
37486;BME280;23341;50.296;18.960;2023-03-31T12:26:34;44295.34;;;-144.43;63.21
37486;BME280;23341;50.296;18.960;2023-03-31T12:31:43;44251.44;;;-144.43;57.61
37486;BME280;23341;50.296;18.960;2023-03-31T12:36:59;44253.44;;;-144.43;55.17
37486;BME280;23341;50.296;18.960;2023-03-31T12:42:40;44311.31;;;-144.43;54.56
37486;BME280;23341;50.296;18.960;2023-03-31T12:48:11;44347.25;;;-144.43;56.04
37486;BME280;23341;50.296;18.960;2023-03-31T12:53:28;44417.09;;;-144.43;57.97
37486;BME280;23341;50.296;18.960;2023-03-31T12:58:40;44373.19;;;-144.43;57.12
37486;BME280;23341;50.296;18.960;2023-03-31T13:03:49;44425.09;;;-144.43;56.18
37486;BME280;23341;50.296;18.960;2023-03-31T13:08:55;44532.88;;;-144.43;55.69
37486;BME280;23341;50.296;18.960;2023-03-31T13:14:01;44522.91;;;-144.43;56.12
37486;BME280;23341;50.296;18.960;2023-03-31T13:19:09;44528.88;;;-144.43;56.44
37486;BME280;23341;50.296;18.960;2023-03-31T13:24:20;44536.88;;;-144.43;58.18
37486;BME280;23341;50.296;18.960;2023-03-31T13:29:38;44592.75;;;-144.43;55.38
37486;BME280;23341;50.296;18.960;2023-03-31T13:34:49;44558.84;;;-144.43;56.00
37486;BME280;23341;50.296;18.960;2023-03-31T13:40:06;44602.75;;;-144.43;55.63
37486;BME280;23341;50.296;18.960;2023-03-31T13:45:25;44588.78;;;-144.43;56.71
37486;BME280;23341;50.296;18.960;2023-03-31T13:51:15;44584.78;;;-144.43;58.69
37486;BME280;23341;50.296;18.960;2023-03-31T13:56:37;44616.72;;;-144.43;63.05
37486;BME280;23341;50.296;18.960;2023-03-31T14:01:58;44600.75;;;-144.43;68.33
37486;BME280;23341;50.296;18.960;2023-03-31T14:07:09;44564.81;;;-144.43;77.44
37486;BME280;23341;50.296;18.960;2023-03-31T14:12:31;44459.03;;;-144.43;83.58
37486;BME280;23341;50.296;18.960;2023-03-31T14:17:38;44375.19;;;-144.43;88.42
37486;BME280;23341;50.296;18.960;2023-03-31T14:22:50;44265.41;;;-144.43;92.46
37486;BME280;23341;50.296;18.960;2023-03-31T14:28:03;43926.09;;;-144.43;100.00
37486;BME280;23341;50.296;18.960;2023-03-31T14:33:27;43419.16;;;-144.43;100.00
37486;BME280;23341;50.296;18.960;2023-03-31T14:38:37;43085.91;;;-144.43;100.00
37486;BME280;23341;50.296;18.960;2023-03-31T14:43:46;42662.91;;;-144.43;100.00
37486;BME280;23341;50.296;18.960;2023-03-31T14:48:51;42365.63;;;-144.43;100.00
37486;BME280;23341;50.296;18.960;2023-03-31T14:53:57;41962.63;;;-144.43;100.00
37486;BME280;23341;50.296;18.960;2023-03-31T14:59:02;41553.69;;;-144.43;100.00
37486;BME280;23341;50.296;18.960;2023-03-31T15:04:11;41368.19;;;-144.43;100.00
37486;BME280;23341;50.296;18.960;2023-03-31T15:09:21;41232.56;;;-144.43;100.00
37486;BME280;23341;50.296;18.960;2023-03-31T15:14:28;40943.38;;;-144.43;100.00
37486;BME280;23341;50.296;18.960;2023-03-31T15:19:34;40925.41;;;-144.43;100.00
37486;BME280;23341;50.296;18.960;2023-03-31T15:24:40;40995.22;;;-144.43;100.00
37486;BME280;23341;50.296;18.960;2023-03-31T15:29:46;40973.28;;;-144.43;100.00
37486;BME280;23341;50.296;18.960;2023-03-31T15:34:52;41100.94;;;-144.43;100.00
37486;BME280;23341;50.296;18.960;2023-03-31T15:40:02;41254.50;;;-144.43;100.00
37486;BME280;23341;50.296;18.960;2023-03-31T15:45:36;41264.47;;;-144.43;100.00
37486;BME280;23341;50.296;18.960;2023-03-31T15:50:41;41260.50;;;-144.43;100.00
37486;BME280;23341;50.296;18.960;2023-03-31T15:55:52;41308.34;;;-144.43;100.00
37486;BME280;23341;50.296;18.960;2023-03-31T16:01:02;41344.25;;;-144.43;100.00
37486;BME280;23341;50.296;18.960;2023-03-31T16:06:09;41256.50;;;-144.43;100.00
37486;BME280;23341;50.296;18.960;2023-03-31T16:11:19;41240.53;;;-144.43;100.00
37486;BME280;23341;50.296;18.960;2023-03-31T16:16:27;41130.84;;;-144.43;100.00
37486;BME280;23341;50.296;18.960;2023-03-31T16:21:35;41082.97;;;-144.43;100.00
37486;BME280;23341;50.296;18.960;2023-03-31T16:26:44;41092.94;;;-144.43;100.00
37486;BME280;23341;50.296;18.960;2023-03-31T16:31:48;41120.88;;;-144.43;100.00
37486;BME280;23341;50.296;18.960;2023-03-31T16:36:53;41102.91;;;-144.43;100.00
37486;BME280;23341;50.296;18.960;2023-03-31T16:41:59;41098.94;;;-144.43;100.00
37486;BME280;23341;50.296;18.960;2023-03-31T16:47:03;41075.00;;;-144.43;100.00
37486;BME280;23341;50.296;18.960;2023-03-31T16:52:08;41120.88;;;-144.43;100.00
37486;BME280;23341;50.296;18.960;2023-03-31T16:57:14;41250.50;;;-144.43;100.00
37486;BME280;23341;50.296;18.960;2023-03-31T17:02:18;41222.59;;;-144.43;100.00
37486;BME280;23341;50.296;18.960;2023-03-31T17:07:23;41304.38;;;-144.43;100.00
37486;BME280;23341;50.296;18.960;2023-03-31T17:12:30;41330.28;;;-144.43;100.00
37486;BME280;23341;50.296;18.960;2023-03-31T17:17:34;41280.44;;;-144.43;100.00
37486;BME280;23341;50.296;18.960;2023-03-31T17:22:39;41228.56;;;-144.43;100.00
37486;BME280;23341;50.296;18.960;2023-03-31T17:27:45;41198.66;;;-144.43;100.00
37486;BME280;23341;50.296;18.960;2023-03-31T17:32:50;41276.44;;;-144.43;100.00
37486;BME280;23341;50.296;18.960;2023-03-31T17:37:54;41202.66;;;-144.43;100.00
37486;BME280;23341;50.296;18.960;2023-03-31T17:43:00;41248.53;;;-144.43;100.00
37486;BME280;23341;50.296;18.960;2023-03-31T17:48:05;41244.53;;;-144.43;100.00
37486;BME280;23341;50.296;18.960;2023-03-31T17:53:12;41134.84;;;-144.43;100.00
37486;BME280;23341;50.296;18.960;2023-03-31T17:58:17;41086.97;;;-144.43;100.00
37486;BME280;23341;50.296;18.960;2023-03-31T18:03:26;41100.94;;;-144.43;100.00
37486;BME280;23341;50.296;18.960;2023-03-31T18:08:31;41120.88;;;-144.43;100.00
37486;BME280;23341;50.296;18.960;2023-03-31T18:13:38;41088.97;;;-144.43;100.00
37486;BME280;23341;50.296;18.960;2023-03-31T18:18:42;41094.94;;;-144.43;100.00
37486;BME280;23341;50.296;18.960;2023-03-31T18:23:47;41029.13;;;-144.43;100.00
37486;BME280;23341;50.296;18.960;2023-03-31T18:28:56;41106.91;;;-144.43;100.00
37486;BME280;23341;50.296;18.960;2023-03-31T18:34:00;40993.22;;;-144.43;100.00
37486;BME280;23341;50.296;18.960;2023-03-31T18:39:05;40901.50;;;-144.43;100.00
37486;BME280;23341;50.296;18.960;2023-03-31T18:44:11;40801.78;;;-144.43;100.00
37486;BME280;23341;50.296;18.960;2023-03-31T18:49:16;40670.16;;;-144.43;100.00
37486;BME280;23341;50.296;18.960;2023-03-31T18:54:22;40733.97;;;-144.43;100.00
37486;BME280;23341;50.296;18.960;2023-03-31T18:59:28;40749.91;;;-144.43;100.00
37486;BME280;23341;50.296;18.960;2023-03-31T19:04:32;40726.00;;;-144.43;100.00
37486;BME280;23341;50.296;18.960;2023-03-31T19:09:37;40739.94;;;-144.43;100.00
37486;BME280;23341;50.296;18.960;2023-03-31T19:14:43;40646.22;;;-144.43;100.00
37486;BME280;23341;50.296;18.960;2023-03-31T19:19:48;40692.09;;;-144.43;100.00
37486;BME280;23341;50.296;18.960;2023-03-31T19:24:57;40706.03;;;-144.43;100.00
37486;BME280;23341;50.296;18.960;2023-03-31T19:30:03;40867.59;;;-144.43;100.00
37486;BME280;23341;50.296;18.960;2023-03-31T19:35:08;40811.75;;;-144.43;100.00
37486;BME280;23341;50.296;18.960;2023-03-31T19:40:13;40869.56;;;-144.43;100.00
37486;BME280;23341;50.296;18.960;2023-03-31T19:45:19;40839.66;;;-144.43;100.00
37486;BME280;23341;50.296;18.960;2023-03-31T19:50:23;40879.56;;;-144.43;100.00
37486;BME280;23341;50.296;18.960;2023-03-31T19:55:28;40897.50;;;-144.43;100.00
37486;BME280;23341;50.296;18.960;2023-03-31T20:00:34;40909.47;;;-144.43;100.00
37486;BME280;23341;50.296;18.960;2023-03-31T20:05:39;40953.34;;;-144.43;100.00
37486;BME280;23341;50.296;18.960;2023-03-31T20:10:43;41009.19;;;-144.43;100.00
37486;BME280;23341;50.296;18.960;2023-03-31T20:15:57;41025.13;;;-144.43;100.00
37486;BME280;23341;50.296;18.960;2023-03-31T20:21:03;41055.06;;;-144.43;100.00
37486;BME280;23341;50.296;18.960;2023-03-31T20:26:10;41096.94;;;-144.43;100.00
37486;BME280;23341;50.296;18.960;2023-03-31T20:31:18;41090.97;;;-144.43;100.00
37486;BME280;23341;50.296;18.960;2023-03-31T20:36:27;41118.88;;;-144.43;100.00
37486;BME280;23341;50.296;18.960;2023-03-31T20:41:35;41204.63;;;-144.43;100.00
37486;BME280;23341;50.296;18.960;2023-03-31T20:46:42;41214.63;;;-144.43;100.00
37486;BME280;23341;50.296;18.960;2023-03-31T20:51:47;41262.47;;;-144.43;100.00
37486;BME280;23341;50.296;18.960;2023-03-31T20:56:51;41340.28;;;-144.43;100.00
37486;BME280;23341;50.296;18.960;2023-03-31T21:01:57;41380.16;;;-144.43;100.00
37486;BME280;23341;50.296;18.960;2023-03-31T21:07:02;41469.91;;;-144.43;100.00
37486;BME280;23341;50.296;18.960;2023-03-31T21:12:06;41517.78;;;-144.43;100.00
37486;BME280;23341;50.296;18.960;2023-03-31T21:17:12;41595.59;;;-144.43;100.00
37486;BME280;23341;50.296;18.960;2023-03-31T21:22:16;41643.47;;;-144.43;100.00
37486;BME280;23341;50.296;18.960;2023-03-31T21:27:24;41603.56;;;-144.43;100.00
37486;BME280;23341;50.296;18.960;2023-03-31T21:32:30;41575.63;;;-144.43;100.00
37486;BME280;23341;50.296;18.960;2023-03-31T21:37:34;41539.72;;;-144.43;100.00
37486;BME280;23341;50.296;18.960;2023-03-31T21:42:39;41529.75;;;-144.43;100.00
37486;BME280;23341;50.296;18.960;2023-03-31T21:47:45;41543.72;;;-144.43;100.00
37486;BME280;23341;50.296;18.960;2023-03-31T21:52:50;41579.63;;;-144.43;100.00
37486;BME280;23341;50.296;18.960;2023-03-31T21:57:54;41607.56;;;-144.43;100.00
37486;BME280;23341;50.296;18.960;2023-03-31T22:03:00;41671.38;;;-144.43;100.00
37486;BME280;23341;50.296;18.960;2023-03-31T22:08:25;41679.38;;;-144.43;100.00
37486;BME280;23341;50.296;18.960;2023-03-31T22:13:30;41683.34;;;-144.43;100.00
37486;BME280;23341;50.296;18.960;2023-03-31T22:18:36;41693.31;;;-144.43;100.00
37486;BME280;23341;50.296;18.960;2023-03-31T22:23:40;41713.28;;;-144.43;100.00
37486;BME280;23341;50.296;18.960;2023-03-31T22:28:44;41719.25;;;-144.43;100.00
37486;BME280;23341;50.296;18.960;2023-03-31T22:33:50;41771.13;;;-144.43;100.00
37486;BME280;23341;50.296;18.960;2023-03-31T22:38:55;41759.16;;;-144.43;100.00
37486;BME280;23341;50.296;18.960;2023-03-31T22:43:59;41761.16;;;-144.43;100.00
37486;BME280;23341;50.296;18.960;2023-03-31T22:49:05;41787.06;;;-144.43;100.00
37486;BME280;23341;50.296;18.960;2023-03-31T22:54:11;41767.13;;;-144.43;100.00
37486;BME280;23341;50.296;18.960;2023-03-31T22:59:16;41763.13;;;-144.43;100.00
37486;BME280;23341;50.296;18.960;2023-03-31T23:04:22;41757.16;;;-144.43;100.00
37486;BME280;23341;50.296;18.960;2023-03-31T23:09:27;41747.19;;;-144.43;100.00
37486;BME280;23341;50.296;18.960;2023-03-31T23:14:31;41781.09;;;-144.43;100.00
37486;BME280;23341;50.296;18.960;2023-03-31T23:19:37;41787.06;;;-144.43;100.00
37486;BME280;23341;50.296;18.960;2023-03-31T23:24:41;41777.09;;;-144.43;100.00
37486;BME280;23341;50.296;18.960;2023-03-31T23:29:46;41757.16;;;-144.43;100.00
37486;BME280;23341;50.296;18.960;2023-03-31T23:34:52;41753.16;;;-144.43;100.00
37486;BME280;23341;50.296;18.960;2023-03-31T23:39:56;41759.16;;;-144.43;100.00
37486;BME280;23341;50.296;18.960;2023-03-31T23:45:00;41743.19;;;-144.43;100.00
37486;BME280;23341;50.296;18.960;2023-03-31T23:50:07;41751.16;;;-144.43;100.00
37486;BME280;23341;50.296;18.960;2023-03-31T23:55:12;41755.16;;;-144.43;100.00
